Time;durP1;ratioP1;P1;durP2;ratioP2;P2;SDS_P1;SDS_P2;PMS_P1;PMS_P2;Temp;Humidity;BMP_temperature;BMP_pressure;BME280_temperature;BME280_humidity;BME280_pressure;Samples;Min_cycle;Max_cycle;Signal;HPM_P1;HPM_P2
2023/05/02 00:00:44;;;;;;;;;;;;;;;;;;4969715;28;19921;-43
2023/05/02 05:07:44;;;;;;;;;;;;;;;;;;4978418;28;19920;-42
2023/05/02 05:10:10;;;;;;;;;;;;;;;;;;4991062;28;19925;-43
2023/05/02 05:12:36;;;;;;;;;;;;;;;;;;4989111;28;19913;-42
2023/05/02 05:15:02;;;;;;;;;;;;;;;;;;4954190;28;20316;-44
2023/05/02 05:17:28;;;;;;;;;;;;;;;;;;4971640;28;19906;-42
2023/05/02 05:19:54;;;;;;;;;;;;;;;;;;4971696;28;19906;-43
2023/05/02 05:22:20;;;;;;;;;;;;;;;;;;4971854;28;19972;-42
2023/05/02 05:24:46;;;;;;;;;;;;;;;;;;4972076;28;19949;-42
2023/05/02 05:27:12;;;;;;;;;;;;;;;;;;4971355;28;19933;-43
2023/05/02 05:29:38;;;;;;;;;;;;;;;;;;4971549;28;19906;-42
2023/05/02 05:32:04;;;;;;;;;;;;;;;;;;4971178;28;20001;-42
2023/05/02 05:34:30;;;;;;;;;;;;;;;;;;4971492;28;20296;-43
2023/05/02 05:36:56;;;;;;;;;;;;;;;;;;4971002;28;19910;-42
2023/05/02 05:39:23;;;;;;;;;;;;;;;;;;4971158;28;19985;-42
2023/05/02 05:41:49;;;;;;;;;;;;;;;;;;4970928;28;19913;-42
2023/05/02 05:44:15;;;;;;;;;;;;;;;;;;4970960;28;19914;-42
2023/05/02 05:46:41;;;;;;;;;;;;;;;;;;4970964;28;20380;-42
2023/05/02 05:49:07;;;;;;;;;;;;;;;;;;4971147;28;19906;-42
2023/05/02 05:51:33;;;;;;;;;;;;;;;;;;4970798;28;19902;-43
2023/05/02 05:53:59;;;;;;;;;;;;;;;;;;4969148;28;19914;-44
2023/05/02 05:56:25;;;;;;;;;;;;;;;;;;4975374;28;19910;-43
2023/05/02 05:58:53;;;;;;;;;;;;;;;;;;4970272;28;19914;-42
2023/05/02 06:01:20;;;;;;;;;;;;;;;;;;4970754;28;19914;-42
2023/05/02 06:03:46;;;;;;;;;;;;;;;;;;4969235;28;19917;-42
2023/05/02 06:06:13;;;;;;;;;;;;;;;;;;4966612;28;19914;-43
2023/05/02 06:08:40;;;;;;;;;;;;;;;;;;4967451;28;19910;-43
2023/05/02 06:11:06;;;;;;;;;;;;;;;;;;4970776;28;20300;-42
2023/05/02 06:13:32;;;;;;;;;;;;;;;;;;4970691;28;19918;-42
2023/05/02 06:15:58;;;;;;;;;;;;;;;;;;4971266;28;19918;-42
2023/05/02 06:18:24;;;;;;;;;;;;;;;;;;4970223;28;19957;-42
2023/05/02 06:20:50;;;;;;;;;;;;;;;;;;4953267;28;20004;-42
2023/05/02 06:23:15;;;;;;;;;;;;;;;;;;4952332;29;19910;-43
2023/05/02 06:25:41;;;;;;;;;;;;;;;;;;4965890;28;19945;-43
2023/05/02 06:28:08;;;;;;;;;;;;;;;;;;4971057;28;19910;-42
2023/05/02 06:30:34;;;;;;;;;;;;;;;;;;4971218;28;19913;-43
2023/05/02 06:33:00;;;;;;;;;;;;;;;;;;4971115;28;19914;-43
2023/05/02 06:35:26;;;;;;;;;;;;;;;;;;4968112;28;20433;-42
2023/05/02 06:37:52;;;;;;;;;;;;;;;;;;4967972;28;19916;-42
2023/05/02 06:40:18;;;;;;;;;;;;;;;;;;4982743;28;19914;-42
2023/05/02 06:42:44;;;;;;;;;;;;;;;;;;4971036;28;19909;-43
2023/05/02 06:45:10;;;;;;;;;;;;;;;;;;4970563;28;20308;-41
2023/05/02 06:47:36;;;;;;;;;;;;;;;;;;4972466;28;19957;-41
2023/05/02 06:50:02;;;;;;;;;;;;;;;;;;4970902;28;19910;-42
2023/05/02 06:52:28;;;;;;;;;;;;;;;;;;4965567;28;20342;-41
2023/05/02 06:54:54;;;;;;;;;;;;;;;;;;4975914;28;19973;-41
2023/05/02 06:57:20;;;;;;;;;;;;;;;;;;4970738;28;19917;-42
2023/05/02 06:59:46;;;;;;;;;;;;;;;;;;4975114;28;19913;-42
2023/05/02 07:02:12;;;;;;;;;;;;;;;;;;4975365;28;19906;-44
2023/05/02 07:04:38;;;;;;;;;;;;;;;;;;4978068;28;19910;-44
2023/05/02 07:07:04;;;;;;;;;;;;;;;;;;4973535;28;19910;-41
2023/05/02 07:09:30;;;;;;;;;;;;;;;;;;4974795;28;19914;-42
2023/05/02 07:11:56;;;;;;;;;;;;;;;;;;4974636;28;20455;-42
2023/05/02 07:14:21;;;;;;;;;;;;;;;;;;4972974;28;19958;-41
2023/05/02 07:16:47;;;;;;;;;;;;;;;;;;4974100;28;19941;-41
2023/05/02 07:19:13;;;;;;;;;;;;;;;;;;4973982;28;19940;-41
2023/05/02 07:21:39;;;;;;;;;;;;;;;;;;4983375;28;19910;-41
2023/05/02 07:24:05;;;;;;;;;;;;;;;;;;4973884;28;19914;-41
2023/05/02 07:26:31;;;;;;;;;;;;;;;;;;4976307;28;19913;-41
2023/05/02 07:28:57;;;;;;;;;;;;;;;;;;4973903;28;19917;-41
2023/05/02 07:31:23;;;;;;;;;;;;;;;;;;4973589;28;19910;-41
2023/05/02 07:33:49;;;;;;;;;;;;;;;;;;4974581;28;19910;-42
2023/05/02 07:36:16;;;;;;;;;;;;;;;;;;4974436;28;19910;-44
2023/05/02 07:38:42;;;;;;;;;;;;;;;;;;4968005;28;19910;-42
2023/05/02 07:41:08;;;;;;;;;;;;;;;;;;4974046;28;20296;-43
2023/05/02 07:43:35;;;;;;;;;;;;;;;;;;4974075;28;19933;-42
2023/05/02 07:46:01;;;;;;;;;;;;;;;;;;4974977;28;19957;-42
2023/05/02 07:48:27;;;;;;;;;;;;;;;;;;4974028;28;19937;-41
2023/05/02 07:50:53;;;;;;;;;;;;;;;;;;4973940;28;19944;-42
2023/05/02 07:53:19;;;;;;;;;;;;;;;;;;4973648;28;19910;-42
2023/05/02 07:55:45;;;;;;;;;;;;;;;;;;4973598;28;19920;-43
2023/05/02 07:58:11;;;;;;;;;;;;;;;;;;4973461;28;20363;-42
2023/05/02 08:00:37;;;;;;;;;;;;;;;;;;4975524;28;19949;-43
2023/05/02 08:03:03;;;;;;;;;;;;;;;;;;4976252;28;19977;-41
2023/05/02 08:05:29;;;;;;;;;;;;;;;;;;4968361;28;20044;-42
2023/05/02 08:07:55;;;;;;;;;;;;;;;;;;4964646;28;19911;-42
2023/05/02 08:10:22;;;;;;;;;;;;;;;;;;4965173;28;19940;-42
2023/05/02 08:12:49;;;;;;;;;;;;;;;;;;4973497;28;19932;-42
2023/05/02 08:15:15;;;;;;;;;;;;;;;;;;4972706;28;19914;-42
2023/05/02 08:17:41;;;;;;;;;;;;;;;;;;4971453;28;20000;-42
2023/05/02 08:20:07;;;;;;;;;;;;;;;;;;4969365;28;20492;-42
2023/05/02 08:22:33;;;;;;;;;;;;;;;;;;4972424;28;19910;-44
2023/05/02 08:24:59;;;;;;;;;;;;;;;;;;4972038;28;19925;-43
2023/05/02 08:27:25;;;;;;;;;;;;;;;;;;4972430;28;19917;-42
2023/05/02 08:29:51;;;;;;;;;;;;;;;;;;4972242;28;20384;-41
2023/05/02 08:32:17;;;;;;;;;;;;;;;;;;4972667;28;19932;-42
2023/05/02 08:34:43;;;;;;;;;;;;;;;;;;4972112;28;19996;-44
2023/05/02 08:37:09;;;;;;;;;;;;;;;;;;4972039;28;19910;-43
2023/05/02 08:39:35;;;;;;;;;;;;;;;;;;4972013;28;19920;-42
2023/05/02 08:42:01;;;;;;;;;;;;;;;;;;4972158;28;20285;-43
2023/05/02 08:44:27;;;;;;;;;;;;;;;;;;4972098;28;19914;-44
2023/05/02 08:46:53;;;;;;;;;;;;;;;;;;4972126;28;19946;-42
2023/05/02 08:49:19;;;;;;;;;;;;;;;;;;4972222;28;19945;-42
2023/05/02 08:51:45;;;;;;;;;;;;;;;;;;4971269;28;19906;-42
2023/05/02 08:54:11;;;;;;;;;;;;;;;;;;4970442;28;19922;-41
2023/05/02 08:56:37;;;;;;;;;;;;;;;;;;4972260;28;20377;-43
2023/05/02 08:59:03;;;;;;;;;;;;;;;;;;4976757;28;19914;-42
2023/05/02 09:01:28;;;;;;;;;;;;;;;;;;4972381;28;19906;-42
2023/05/02 09:03:57;;;;;;;;;;;;;;;;;;4971435;28;19948;-41
2023/05/02 09:06:23;;;;;;;;;;;;;;;;;;4971119;28;19936;-42
2023/05/02 09:08:49;;;;;;;;;;;;;;;;;;4972589;28;19914;-43
2023/05/02 09:11:15;;;;;;;;;;;;;;;;;;4954725;28;20366;-43
2023/05/02 09:13:41;;;;;;;;;;;;;;;;;;4968283;28;19914;-43
2023/05/02 09:16:08;;;;;;;;;;;;;;;;;;4971975;28;19997;-42
2023/05/02 09:18:34;;;;;;;;;;;;;;;;;;4972024;28;20060;-42
2023/05/02 09:21:00;;;;;;;;;;;;;;;;;;4978526;28;19988;-42
2023/05/02 09:23:26;;;;;;;;;;;;;;;;;;4991871;28;20004;-42
2023/05/02 09:25:52;;;;;;;;;;;;;;;;;;4991393;28;19909;-42
2023/05/02 09:28:18;;;;;;;;;;;;;;;;;;4991667;28;19952;-42
2023/05/02 09:30:44;;;;;;;;;;;;;;;;;;4991749;28;19910;-43
2023/05/02 09:33:10;;;;;;;;;;;;;;;;;;4987144;28;19910;-43
2023/05/02 09:35:35;;;;;;;;;;;;;;;;;;4954568;28;19938;-42
2023/05/02 09:38:02;;;;;;;;;;;;;;;;;;4971954;28;19914;-43
2023/05/02 09:40:29;;;;;;;;;;;;;;;;;;4972169;28;19902;-43
2023/05/02 09:42:56;;;;;;;;;;;;;;;;;;4971514;28;19939;-43
2023/05/02 09:45:22;;;;;;;;;;;;;;;;;;4967797;28;19914;-43
2023/05/02 09:47:48;;;;;;;;;;;;;;;;;;4975080;28;20000;-42
2023/05/02 09:50:14;;;;;;;;;;;;;;;;;;4971711;28;20382;-43
2023/05/02 09:52:40;;;;;;;;;;;;;;;;;;4971829;28;19936;-42
2023/05/02 09:55:06;;;;;;;;;;;;;;;;;;4970178;28;20398;-43
2023/05/02 09:57:32;;;;;;;;;;;;;;;;;;4970196;28;19913;-43
2023/05/02 09:59:58;;;;;;;;;;;;;;;;;;4971583;28;19906;-43
2023/05/02 10:02:24;;;;;;;;;;;;;;;;;;4971514;28;19906;-43
2023/05/02 10:04:50;;;;;;;;;;;;;;;;;;4970539;28;19929;-44
2023/05/02 10:07:16;;;;;;;;;;;;;;;;;;4968316;28;19993;-42
2023/05/02 10:09:42;;;;;;;;;;;;;;;;;;4971224;28;19922;-42
2023/05/02 10:12:08;;;;;;;;;;;;;;;;;;4971148;28;19913;-42
2023/05/02 10:14:34;;;;;;;;;;;;;;;;;;4969970;28;19967;-44
2023/05/02 10:17:01;;;;;;;;;;;;;;;;;;4970853;28;20341;-42
2023/05/02 10:19:28;;;;;;;;;;;;;;;;;;4963578;28;19907;-42
2023/05/02 10:21:54;;;;;;;;;;;;;;;;;;4971339;28;19906;-43
2023/05/02 10:24:20;;;;;;;;;;;;;;;;;;4971319;28;19917;-42
2023/05/02 10:26:46;;;;;;;;;;;;;;;;;;4953327;28;19973;-44
2023/05/02 10:29:11;;;;;;;;;;;;;;;;;;4970632;28;20105;-43
2023/05/02 10:31:39;;;;;;;;;;;;;;;;;;4978204;28;20004;-43
2023/05/02 10:34:06;;;;;;;;;;;;;;;;;;4976120;28;19914;-42
2023/05/02 10:36:32;;;;;;;;;;;;;;;;;;4970227;28;19910;-46
2023/05/02 10:38:58;;;;;;;;;;;;;;;;;;4970656;28;19921;-44
2023/05/02 10:41:25;;;;;;;;;;;;;;;;;;4961229;28;19910;-45
2023/05/02 10:43:51;;;;;;;;;;;;;;;;;;4970658;28;19944;-46
2023/05/02 10:46:17;;;;;;;;;;;;;;;;;;4971136;28;19914;-43
2023/05/02 10:48:43;;;;;;;;;;;;;;;;;;4970570;28;19918;-43
2023/05/02 10:51:13;;;;;;;;;;;;;;;;;;4970605;28;19909;-43
2023/05/02 10:53:42;;;;;;;;;;;;;;;;;;4971080;28;19906;-42
2023/05/02 10:56:08;;;;;;;;;;;;;;;;;;4969831;28;19922;-45
2023/05/02 10:58:34;;;;;;;;;;;;;;;;;;4969897;28;20393;-44
2023/05/02 11:01:00;;;;;;;;;;;;;;;;;;4970543;28;19933;-45
2023/05/02 11:03:26;;;;;;;;;;;;;;;;;;4970182;28;19917;-43
2023/05/02 11:05:52;;;;;;;;;;;;;;;;;;4967046;28;19915;-44
2023/05/02 11:08:18;;;;;;;;;;;;;;;;;;4967223;28;19986;-44
2023/05/02 11:10:45;;;;;;;;;;;;;;;;;;4960505;28;20005;-44
2023/05/02 11:13:11;;;;;;;;;;;;;;;;;;4950387;29;19965;-44
2023/05/02 11:15:37;;;;;;;;;;;;;;;;;;4960079;28;19914;-43
2023/05/02 11:18:05;;;;;;;;;;;;;;;;;;4968956;28;19925;-44
2023/05/02 11:20:31;;;;;;;;;;;;;;;;;;4968519;28;19914;-45
2023/05/02 11:22:57;;;;;;;;;;;;;;;;;;4968064;28;20177;-43
2023/05/02 11:25:23;;;;;;;;;;;;;;;;;;4968621;28;19914;-44
2023/05/02 11:27:48;;;;;;;;;;;;;;;;;;4961915;28;19956;-44
2023/05/02 11:30:15;;;;;;;;;;;;;;;;;;4976515;28;19917;-43
2023/05/02 11:32:41;;;;;;;;;;;;;;;;;;4969328;28;20444;-45
2023/05/02 11:35:07;;;;;;;;;;;;;;;;;;4979569;28;20256;-43
2023/05/02 11:37:33;;;;;;;;;;;;;;;;;;4969839;28;19914;-45
2023/05/02 11:39:59;;;;;;;;;;;;;;;;;;4970163;28;19906;-43
2023/05/02 11:42:25;;;;;;;;;;;;;;;;;;4966893;28;19906;-44
2023/05/02 11:44:51;;;;;;;;;;;;;;;;;;4972042;28;19936;-45
2023/05/02 11:47:17;;;;;;;;;;;;;;;;;;4974135;28;19916;-43
2023/05/02 11:49:43;;;;;;;;;;;;;;;;;;4973625;28;20005;-44
2023/05/02 11:52:09;;;;;;;;;;;;;;;;;;4973782;28;19930;-45
2023/05/02 11:54:36;;;;;;;;;;;;;;;;;;4973688;28;19910;-43
2023/05/02 11:57:02;;;;;;;;;;;;;;;;;;4973637;28;19992;-44
2023/05/02 11:59:28;;;;;;;;;;;;;;;;;;4969519;28;20008;-45
2023/05/02 12:01:54;;;;;;;;;;;;;;;;;;4985284;28;19916;-44
2023/05/02 12:04:22;;;;;;;;;;;;;;;;;;4972704;28;20366;-45
2023/05/02 12:06:48;;;;;;;;;;;;;;;;;;4972802;28;19956;-44
2023/05/02 12:09:19;;;;;;;;;;;;;;;;;;4972227;28;20275;-44
2023/05/02 12:11:45;;;;;;;;;;;;;;;;;;4969439;28;19925;-43
2023/05/02 12:14:11;;;;;;;;;;;;;;;;;;4966987;28;19918;-43
2023/05/02 12:16:37;;;;;;;;;;;;;;;;;;4973366;28;19929;-44
2023/05/02 12:19:04;;;;;;;;;;;;;;;;;;4973397;28;19914;-43
2023/05/02 12:21:31;;;;;;;;;;;;;;;;;;4973443;28;19984;-43
2023/05/02 12:23:57;;;;;;;;;;;;;;;;;;4973378;28;19907;-44
2023/05/02 12:26:31;;;;;;;;;;;;;;;;;;4973121;28;19957;-44
2023/05/02 12:28:57;;;;;;;;;;;;;;;;;;4972535;28;20387;-44
2023/05/02 12:31:26;;;;;;;;;;;;;;;;;;4973436;28;19910;-43
2023/05/02 12:33:56;;;;;;;;;;;;;;;;;;4973022;28;19941;-43
2023/05/02 12:36:23;;;;;;;;;;;;;;;;;;4973059;28;19917;-43
2023/05/02 12:38:50;;;;;;;;;;;;;;;;;;4969126;28;19922;-44
2023/05/02 12:41:16;;;;;;;;;;;;;;;;;;4973334;28;20001;-44
2023/05/02 12:43:42;;;;;;;;;;;;;;;;;;4973218;28;20104;-43
2023/05/02 12:46:08;;;;;;;;;;;;;;;;;;4973226;28;19914;-43
2023/05/02 12:48:34;;;;;;;;;;;;;;;;;;4972574;28;20509;-44
2023/05/02 12:51:00;;;;;;;;;;;;;;;;;;4965679;28;19910;-43
2023/05/02 12:53:26;;;;;;;;;;;;;;;;;;4953812;29;19906;-43
2023/05/02 12:55:52;;;;;;;;;;;;;;;;;;4952445;28;19910;-43
2023/05/02 12:58:18;;;;;;;;;;;;;;;;;;4953905;29;19910;-43
2023/05/02 13:00:44;;;;;;;;;;;;;;;;;;4959194;28;19949;-43
2023/05/02 13:03:10;;;;;;;;;;;;;;;;;;4972355;28;19933;-45
2023/05/02 13:05:36;;;;;;;;;;;;;;;;;;4973806;28;19906;-43
2023/05/02 13:08:02;;;;;;;;;;;;;;;;;;4968664;28;20016;-44
2023/05/02 13:10:29;;;;;;;;;;;;;;;;;;4968869;28;20341;-43
2023/05/02 13:12:55;;;;;;;;;;;;;;;;;;4968878;28;20000;-44
2023/05/02 13:15:21;;;;;;;;;;;;;;;;;;4967850;28;19914;-43
2023/05/02 13:17:47;;;;;;;;;;;;;;;;;;4968539;28;19914;-44
2023/05/02 13:20:13;;;;;;;;;;;;;;;;;;4977382;28;19914;-44
2023/05/02 13:22:39;;;;;;;;;;;;;;;;;;4969752;28;20001;-44
2023/05/02 13:25:05;;;;;;;;;;;;;;;;;;4971080;28;19906;-45
2023/05/02 13:27:33;;;;;;;;;;;;;;;;;;4971231;28;19916;-43
2023/05/02 13:29:59;;;;;;;;;;;;;;;;;;4951881;28;20368;-44
2023/05/02 13:32:24;;;;;;;;;;;;;;;;;;4950481;28;20006;-42
2023/05/02 13:34:51;;;;;;;;;;;;;;;;;;4968064;28;19910;-46
2023/05/02 13:37:18;;;;;;;;;;;;;;;;;;4968479;28;19918;-46
2023/05/02 13:39:43;;;;;;;;;;;;;;;;;;4968356;28;19920;-43
2023/05/02 13:42:10;;;;;;;;;;;;;;;;;;4951110;28;19910;-46
2023/05/02 13:44:36;;;;;;;;;;;;;;;;;;4968464;28;19975;-42
2023/05/02 13:47:02;;;;;;;;;;;;;;;;;;4969293;28;20409;-47
2023/05/02 13:49:29;;;;;;;;;;;;;;;;;;4969141;28;20132;-45
2023/05/02 13:51:55;;;;;;;;;;;;;;;;;;4968934;28;20341;-44
2023/05/02 13:54:21;;;;;;;;;;;;;;;;;;4968395;28;20016;-44
2023/05/02 13:56:47;;;;;;;;;;;;;;;;;;4969865;28;19910;-46
2023/05/02 13:59:13;;;;;;;;;;;;;;;;;;4969851;28;19952;-45
2023/05/02 14:01:39;;;;;;;;;;;;;;;;;;4970113;28;19910;-43
2023/05/02 14:04:07;;;;;;;;;;;;;;;;;;4969489;28;19914;-45
2023/05/02 14:06:33;;;;;;;;;;;;;;;;;;4969610;28;19956;-45
2023/05/02 14:08:59;;;;;;;;;;;;;;;;;;4967909;28;19968;-47
2023/05/02 14:11:25;;;;;;;;;;;;;;;;;;4954713;28;20407;-44
2023/05/02 14:13:51;;;;;;;;;;;;;;;;;;4953074;28;19918;-44
2023/05/02 14:16:17;;;;;;;;;;;;;;;;;;4969031;28;19933;-43
2023/05/02 14:18:44;;;;;;;;;;;;;;;;;;4969428;28;19980;-46
2023/05/02 14:21:10;;;;;;;;;;;;;;;;;;4969528;28;19969;-44
2023/05/02 14:23:36;;;;;;;;;;;;;;;;;;4969645;28;20045;-46
2023/05/02 14:26:02;;;;;;;;;;;;;;;;;;4970033;28;19913;-46
2023/05/02 14:28:28;;;;;;;;;;;;;;;;;;4968956;28;19914;-47
2023/05/02 14:30:54;;;;;;;;;;;;;;;;;;4969559;28;19910;-42
2023/05/02 14:33:20;;;;;;;;;;;;;;;;;;4968941;28;19950;-44
2023/05/02 14:35:46;;;;;;;;;;;;;;;;;;4968817;28;20052;-46
2023/05/02 14:38:12;;;;;;;;;;;;;;;;;;4969166;28;19914;-48
2023/05/02 14:40:38;;;;;;;;;;;;;;;;;;4959411;28;19918;-45
2023/05/02 14:43:04;;;;;;;;;;;;;;;;;;4969103;28;19964;-47
2023/05/02 14:45:30;;;;;;;;;;;;;;;;;;4969309;28;19906;-46
2023/05/02 14:47:57;;;;;;;;;;;;;;;;;;4968810;28;19921;-48
2023/05/02 14:50:23;;;;;;;;;;;;;;;;;;4968721;28;19914;-46
2023/05/02 14:52:49;;;;;;;;;;;;;;;;;;4968886;28;19914;-46
2023/05/02 14:55:15;;;;;;;;;;;;;;;;;;4967264;28;20400;-50
2023/05/02 14:57:40;;;;;;;;;;;;;;;;;;4965949;28;20001;-43
2023/05/02 15:00:06;;;;;;;;;;;;;;;;;;4967773;28;19957;-46
2023/05/02 15:02:32;;;;;;;;;;;;;;;;;;4967507;28;20372;-48
2023/05/02 15:04:58;;;;;;;;;;;;;;;;;;4968650;28;19917;-46
2023/05/02 15:07:24;;;;;;;;;;;;;;;;;;4967276;28;20301;-45
2023/05/02 15:09:50;;;;;;;;;;;;;;;;;;4962601;28;19914;-47
2023/05/02 15:12:16;;;;;;;;;;;;;;;;;;4941299;28;20301;-48
2023/05/02 15:14:42;;;;;;;;;;;;;;;;;;4985069;28;19918;-50
2023/05/02 15:17:08;;;;;;;;;;;;;;;;;;4980701;28;19914;-48
2023/05/02 15:19:35;;;;;;;;;;;;;;;;;;4979379;28;19921;-47
2023/05/02 15:22:01;;;;;;;;;;;;;;;;;;4970993;28;19941;-45
2023/05/02 15:24:27;;;;;;;;;;;;;;;;;;4971462;28;19953;-44
2023/05/02 15:26:53;;;;;;;;;;;;;;;;;;4969657;28;19933;-44
2023/05/02 15:29:19;;;;;;;;;;;;;;;;;;4970707;28;19910;-45
2023/05/02 15:31:45;;;;;;;;;;;;;;;;;;4971749;28;20321;-45
2023/05/02 15:34:10;;;;;;;;;;;;;;;;;;4958446;28;19917;-44
2023/05/02 15:36:36;;;;;;;;;;;;;;;;;;4952225;29;19907;-46
2023/05/02 15:39:02;;;;;;;;;;;;;;;;;;4951984;29;19946;-47
2023/05/02 15:41:28;;;;;;;;;;;;;;;;;;4952103;29;20388;-47
2023/05/02 15:43:54;;;;;;;;;;;;;;;;;;4952004;29;19917;-46
2023/05/02 15:46:20;;;;;;;;;;;;;;;;;;4958662;28;19917;-44
2023/05/02 15:48:47;;;;;;;;;;;;;;;;;;4971848;28;19910;-44
2023/05/02 15:51:13;;;;;;;;;;;;;;;;;;4971439;28;20349;-45
2023/05/02 15:53:41;;;;;;;;;;;;;;;;;;4971108;28;19949;-47
2023/05/02 15:56:07;;;;;;;;;;;;;;;;;;4971161;28;19910;-45
2023/05/02 15:58:34;;;;;;;;;;;;;;;;;;4971100;28;19996;-47
2023/05/02 16:01:00;;;;;;;;;;;;;;;;;;4970944;28;20459;-45
2023/05/02 16:03:26;;;;;;;;;;;;;;;;;;4970352;28;20001;-44
2023/05/02 16:05:52;;;;;;;;;;;;;;;;;;4970749;28;20456;-44
2023/05/02 16:08:18;;;;;;;;;;;;;;;;;;4970678;28;19906;-46
2023/05/02 16:10:44;;;;;;;;;;;;;;;;;;4969587;28;19996;-45
2023/05/02 16:13:10;;;;;;;;;;;;;;;;;;4969776;28;20620;-44
2023/05/02 16:15:36;;;;;;;;;;;;;;;;;;4969411;28;19910;-45
2023/05/02 16:18:03;;;;;;;;;;;;;;;;;;4969344;28;20264;-44
2023/05/02 16:20:32;;;;;;;;;;;;;;;;;;4969618;28;20384;-46
2023/05/02 16:22:58;;;;;;;;;;;;;;;;;;4969373;28;19949;-45
2023/05/02 16:25:25;;;;;;;;;;;;;;;;;;4969434;28;19916;-46
2023/05/02 16:27:52;;;;;;;;;;;;;;;;;;4966180;28;19910;-44
2023/05/02 16:30:18;;;;;;;;;;;;;;;;;;4973735;28;19914;-47
2023/05/02 16:32:44;;;;;;;;;;;;;;;;;;4960524;28;19917;-47
2023/05/02 16:35:11;;;;;;;;;;;;;;;;;;4951366;28;19925;-45
2023/05/02 16:37:38;;;;;;;;;;;;;;;;;;4987486;28;20004;-48
2023/05/02 16:40:04;;;;;;;;;;;;;;;;;;4978183;28;19910;-46
2023/05/02 16:42:31;;;;;;;;;;;;;;;;;;4968035;28;20463;-46
2023/05/02 16:44:57;;;;;;;;;;;;;;;;;;4968970;28;19909;-48
2023/05/02 16:47:23;;;;;;;;;;;;;;;;;;4969633;28;19972;-44
2023/05/02 16:49:48;;;;;;;;;;;;;;;;;;4970165;28;19909;-44
2023/05/02 16:52:15;;;;;;;;;;;;;;;;;;4960767;28;19922;-49
2023/05/02 16:54:41;;;;;;;;;;;;;;;;;;4969291;28;20404;-46
2023/05/02 16:57:08;;;;;;;;;;;;;;;;;;4968698;28;19969;-47
2023/05/02 16:59:34;;;;;;;;;;;;;;;;;;4967576;28;19913;-46
2023/05/02 17:02:01;;;;;;;;;;;;;;;;;;4968076;28;19921;-47
2023/05/02 17:04:27;;;;;;;;;;;;;;;;;;4949348;28;19910;-48
2023/05/02 17:06:53;;;;;;;;;;;;;;;;;;4964994;28;19918;-49
2023/05/02 17:09:19;;;;;;;;;;;;;;;;;;4968958;28;19917;-47
2023/05/02 17:11:45;;;;;;;;;;;;;;;;;;4967183;28;20013;-47
2023/05/02 17:14:12;;;;;;;;;;;;;;;;;;4968400;28;19914;-49
2023/05/02 17:16:38;;;;;;;;;;;;;;;;;;4967277;28;19918;-48
2023/05/02 17:19:05;;;;;;;;;;;;;;;;;;4946762;28;19911;-49
2023/05/02 17:21:31;;;;;;;;;;;;;;;;;;4966069;28;19914;-47
2023/05/02 17:23:57;;;;;;;;;;;;;;;;;;4968549;28;20385;-46
2023/05/02 17:26:23;;;;;;;;;;;;;;;;;;4968395;28;19921;-45
2023/05/02 17:28:52;;;;;;;;;;;;;;;;;;4966225;28;19917;-46
2023/05/02 17:31:19;;;;;;;;;;;;;;;;;;4968290;28;20025;-47
2023/05/02 17:33:45;;;;;;;;;;;;;;;;;;4966652;28;20339;-45
2023/05/02 17:36:11;;;;;;;;;;;;;;;;;;4966869;28;19917;-46
2023/05/02 17:38:37;;;;;;;;;;;;;;;;;;4966241;28;20305;-47
2023/05/02 17:41:02;;;;;;;;;;;;;;;;;;4948900;28;19918;-48
2023/05/02 17:43:28;;;;;;;;;;;;;;;;;;4965997;28;19905;-49
2023/05/02 17:45:55;;;;;;;;;;;;;;;;;;4966283;28;20433;-45
2023/05/02 17:48:21;;;;;;;;;;;;;;;;;;4966563;28;20278;-45
2023/05/02 17:50:48;;;;;;;;;;;;;;;;;;4966351;28;19910;-46
2023/05/02 17:53:14;;;;;;;;;;;;;;;;;;4966170;28;19921;-49
2023/05/02 17:55:41;;;;;;;;;;;;;;;;;;4965865;28;19918;-44
2023/05/02 17:58:07;;;;;;;;;;;;;;;;;;4963022;28;20013;-45
2023/05/02 18:00:33;;;;;;;;;;;;;;;;;;4966276;28;20353;-48
2023/05/02 18:02:59;;;;;;;;;;;;;;;;;;4947469;28;19921;-46
2023/05/02 18:05:26;;;;;;;;;;;;;;;;;;4950479;28;19925;-46
2023/05/02 18:07:52;;;;;;;;;;;;;;;;;;4965882;28;19965;-44
2023/05/02 18:10:18;;;;;;;;;;;;;;;;;;4965185;28;20312;-45
2023/05/02 18:12:44;;;;;;;;;;;;;;;;;;4965465;28;19937;-46
2023/05/02 18:15:11;;;;;;;;;;;;;;;;;;4963932;28;19984;-48
2023/05/02 18:17:38;;;;;;;;;;;;;;;;;;4965858;28;20293;-46
2023/05/02 18:20:05;;;;;;;;;;;;;;;;;;4964876;28;19918;-48
2023/05/02 18:22:32;;;;;;;;;;;;;;;;;;4965480;28;19914;-45
2023/05/02 18:24:58;;;;;;;;;;;;;;;;;;4964705;28;19910;-44
2023/05/02 18:27:24;;;;;;;;;;;;;;;;;;4964285;28;19917;-48
2023/05/02 18:29:50;;;;;;;;;;;;;;;;;;4964620;28;20396;-45
2023/05/02 18:32:16;;;;;;;;;;;;;;;;;;4965537;28;19914;-48
2023/05/02 18:34:42;;;;;;;;;;;;;;;;;;4964251;28;19969;-47
2023/05/02 18:37:08;;;;;;;;;;;;;;;;;;4963196;28;19916;-45
2023/05/02 18:39:35;;;;;;;;;;;;;;;;;;4948445;28;19922;-45
2023/05/02 18:42:01;;;;;;;;;;;;;;;;;;4966461;28;19921;-44
2023/05/02 18:44:27;;;;;;;;;;;;;;;;;;4965735;28;19917;-47
2023/05/02 18:46:53;;;;;;;;;;;;;;;;;;4965812;28;19914;-46
2023/05/02 18:49:20;;;;;;;;;;;;;;;;;;4965623;28;20048;-44
2023/05/02 18:51:46;;;;;;;;;;;;;;;;;;4963881;28;20388;-46
2023/05/02 18:54:12;;;;;;;;;;;;;;;;;;4952061;28;19910;-44
2023/05/02 18:56:39;;;;;;;;;;;;;;;;;;4963089;28;19910;-49
2023/05/02 18:59:07;;;;;;;;;;;;;;;;;;4964603;28;19965;-44
2023/05/02 19:01:33;;;;;;;;;;;;;;;;;;4966262;28;19914;-45
2023/05/02 19:04:00;;;;;;;;;;;;;;;;;;4964841;28;20377;-45
2023/05/02 19:06:27;;;;;;;;;;;;;;;;;;4965425;28;20457;-44
2023/05/02 19:08:53;;;;;;;;;;;;;;;;;;4965086;28;19976;-44
2023/05/02 19:11:19;;;;;;;;;;;;;;;;;;4965822;28;20016;-45
2023/05/02 19:13:45;;;;;;;;;;;;;;;;;;4965334;28;19918;-45
2023/05/02 19:16:11;;;;;;;;;;;;;;;;;;4965462;28;20371;-46
2023/05/02 19:18:37;;;;;;;;;;;;;;;;;;4965558;28;20258;-45
2023/05/02 19:21:03;;;;;;;;;;;;;;;;;;4965705;28;19921;-46
2023/05/02 19:23:31;;;;;;;;;;;;;;;;;;4955076;28;19910;-45
2023/05/02 19:25:57;;;;;;;;;;;;;;;;;;4964346;28;19917;-45
2023/05/02 19:28:22;;;;;;;;;;;;;;;;;;4961245;28;19917;-46
2023/05/02 19:30:50;;;;;;;;;;;;;;;;;;4970449;28;20608;-44
2023/05/02 19:33:16;;;;;;;;;;;;;;;;;;4965265;28;19962;-45
2023/05/02 19:35:42;;;;;;;;;;;;;;;;;;4964958;28;20486;-47
2023/05/02 19:38:08;;;;;;;;;;;;;;;;;;4963349;28;20126;-45
2023/05/02 19:40:34;;;;;;;;;;;;;;;;;;4965674;28;19921;-48
2023/05/02 19:43:00;;;;;;;;;;;;;;;;;;4965374;28;20447;-46
2023/05/02 19:45:26;;;;;;;;;;;;;;;;;;4962259;28;20378;-48
2023/05/02 19:47:52;;;;;;;;;;;;;;;;;;4965049;28;19918;-48
2023/05/02 19:50:18;;;;;;;;;;;;;;;;;;4964545;28;20571;-46
2023/05/02 19:52:44;;;;;;;;;;;;;;;;;;4964487;28;19910;-47
2023/05/02 19:55:11;;;;;;;;;;;;;;;;;;4964135;28;19918;-46
2023/05/02 19:57:37;;;;;;;;;;;;;;;;;;4965274;28;19914;-48
2023/05/02 20:00:03;;;;;;;;;;;;;;;;;;4965396;28;20350;-44
2023/05/02 20:02:29;;;;;;;;;;;;;;;;;;4964147;28;20312;-45
2023/05/02 20:04:55;;;;;;;;;;;;;;;;;;4964689;28;19914;-45
2023/05/02 20:07:22;;;;;;;;;;;;;;;;;;4968591;28;19976;-45
2023/05/02 20:09:48;;;;;;;;;;;;;;;;;;4950922;28;19946;-45
2023/05/02 20:12:14;;;;;;;;;;;;;;;;;;4968161;28;19961;-48
2023/05/02 20:14:40;;;;;;;;;;;;;;;;;;4967222;28;19922;-47
2023/05/02 20:17:07;;;;;;;;;;;;;;;;;;4968574;28;19914;-46
2023/05/02 20:19:33;;;;;;;;;;;;;;;;;;4967596;28;20274;-48
2023/05/02 20:21:59;;;;;;;;;;;;;;;;;;4967598;28;19916;-47
2023/05/02 20:24:25;;;;;;;;;;;;;;;;;;4968645;28;19997;-47
2023/05/02 20:26:52;;;;;;;;;;;;;;;;;;4966222;28;20281;-47
2023/05/02 20:29:19;;;;;;;;;;;;;;;;;;4967887;28;19925;-46
2023/05/02 20:31:45;;;;;;;;;;;;;;;;;;4967890;28;19910;-46
2023/05/02 20:34:12;;;;;;;;;;;;;;;;;;4967610;28;20013;-47
2023/05/02 20:36:39;;;;;;;;;;;;;;;;;;4967529;28;19914;-46
2023/05/02 20:39:07;;;;;;;;;;;;;;;;;;4967269;28;19910;-48
2023/05/02 20:41:35;;;;;;;;;;;;;;;;;;4968357;28;19921;-48
2023/05/02 20:44:02;;;;;;;;;;;;;;;;;;4967690;28;20305;-45
2023/05/02 20:46:29;;;;;;;;;;;;;;;;;;4968201;28;20022;-46
2023/05/02 20:48:58;;;;;;;;;;;;;;;;;;4966315;28;19920;-44
2023/05/02 20:51:24;;;;;;;;;;;;;;;;;;4967596;28;20349;-47
2023/05/02 20:53:50;;;;;;;;;;;;;;;;;;4967386;28;19952;-44
2023/05/02 20:56:17;;;;;;;;;;;;;;;;;;4967510;28;20309;-47
2023/05/02 20:58:43;;;;;;;;;;;;;;;;;;4950046;28;20008;-45
2023/05/02 21:01:09;;;;;;;;;;;;;;;;;;4948645;28;19988;-47
2023/05/02 21:03:38;;;;;;;;;;;;;;;;;;4967212;28;19910;-46
2023/05/02 21:06:04;;;;;;;;;;;;;;;;;;4968235;28;19914;-46
2023/05/02 21:08:30;;;;;;;;;;;;;;;;;;4968011;28;19910;-44
2023/05/02 21:10:56;;;;;;;;;;;;;;;;;;4966829;28;20329;-44
2023/05/02 21:13:23;;;;;;;;;;;;;;;;;;4967174;28;20165;-47
2023/05/02 21:15:48;;;;;;;;;;;;;;;;;;4958965;28;19921;-45
2023/05/02 21:18:14;;;;;;;;;;;;;;;;;;4963595;28;19910;-45
2023/05/02 21:20:40;;;;;;;;;;;;;;;;;;4967097;28;19912;-47
2023/05/02 21:23:06;;;;;;;;;;;;;;;;;;4967286;28;19947;-44
2023/05/02 21:25:33;;;;;;;;;;;;;;;;;;4968187;28;19914;-46
2023/05/02 21:28:00;;;;;;;;;;;;;;;;;;4967173;28;20012;-44
2023/05/02 21:30:26;;;;;;;;;;;;;;;;;;4966982;28;19914;-47
2023/05/02 21:32:53;;;;;;;;;;;;;;;;;;4967323;28;19941;-43
2023/05/02 21:35:20;;;;;;;;;;;;;;;;;;4966835;28;19917;-44
2023/05/02 21:37:45;;;;;;;;;;;;;;;;;;4967247;28;19960;-47
2023/05/02 21:40:11;;;;;;;;;;;;;;;;;;4966977;28;19941;-45
2023/05/02 21:42:38;;;;;;;;;;;;;;;;;;4967166;28;20063;-44